sensor_id;sensor_type;location;lat;lon;timestamp;P1;durP1;ratioP1;P2;durP2;ratioP2
10605;SDS011;5350;42.698;23.148;2023-02-24T00:01:59;22.40;;;15.20;;
10605;SDS011;5350;42.698;23.148;2023-02-24T00:04:30;25.57;;;14.27;;
10605;SDS011;5350;42.698;23.148;2023-02-24T00:06:59;23.83;;;14.10;;
10605;SDS011;5350;42.698;23.148;2023-02-24T00:09:27;23.27;;;14.53;;
10605;SDS011;5350;42.698;23.148;2023-02-24T00:11:56;18.07;;;12.37;;
10605;SDS011;5350;42.698;23.148;2023-02-24T00:14:25;20.90;;;13.20;;
10605;SDS011;5350;42.698;23.148;2023-02-24T00:16:53;19.07;;;12.67;;
10605;SDS011;5350;42.698;23.148;2023-02-24T00:19:21;18.90;;;12.20;;
10605;SDS011;5350;42.698;23.148;2023-02-24T00:21:50;19.53;;;12.57;;
10605;SDS011;5350;42.698;23.148;2023-02-24T00:24:18;17.37;;;12.07;;
10605;SDS011;5350;42.698;23.148;2023-02-24T00:26:45;17.40;;;11.47;;
10605;SDS011;5350;42.698;23.148;2023-02-24T00:29:18;17.80;;;11.30;;
10605;SDS011;5350;42.698;23.148;2023-02-24T00:31:45;18.90;;;11.17;;
10605;SDS011;5350;42.698;23.148;2023-02-24T00:34:20;15.17;;;10.07;;
10605;SDS011;5350;42.698;23.148;2023-02-24T00:36:47;14.83;;;9.57;;
10605;SDS011;5350;42.698;23.148;2023-02-24T00:39:16;12.53;;;9.53;;
10605;SDS011;5350;42.698;23.148;2023-02-24T00:41:43;14.37;;;9.60;;
10605;SDS011;5350;42.698;23.148;2023-02-24T00:44:10;15.70;;;9.17;;
10605;SDS011;5350;42.698;23.148;2023-02-24T00:46:39;15.97;;;9.23;;
10605;SDS011;5350;42.698;23.148;2023-02-24T00:49:10;14.40;;;9.50;;
10605;SDS011;5350;42.698;23.148;2023-02-24T00:51:42;12.43;;;8.90;;
10605;SDS011;5350;42.698;23.148;2023-02-24T00:54:11;11.97;;;8.77;;
10605;SDS011;5350;42.698;23.148;2023-02-24T00:56:40;12.43;;;8.33;;
10605;SDS011;5350;42.698;23.148;2023-02-24T00:59:08;13.80;;;8.30;;
10605;SDS011;5350;42.698;23.148;2023-02-24T01:01:36;13.10;;;8.67;;
10605;SDS011;5350;42.698;23.148;2023-02-24T01:04:03;11.83;;;7.40;;
10605;SDS011;5350;42.698;23.148;2023-02-24T01:06:35;12.07;;;8.93;;
10605;SDS011;5350;42.698;23.148;2023-02-24T01:09:03;13.43;;;8.73;;
10605;SDS011;5350;42.698;23.148;2023-02-24T01:11:33;14.07;;;8.30;;
10605;SDS011;5350;42.698;23.148;2023-02-24T01:14:21;13.80;;;7.80;;
10605;SDS011;5350;42.698;23.148;2023-02-24T01:16:50;13.67;;;8.07;;
10605;SDS011;5350;42.698;23.148;2023-02-24T01:19:18;13.53;;;7.73;;
10605;SDS011;5350;42.698;23.148;2023-02-24T01:21:45;12.00;;;7.77;;
10605;SDS011;5350;42.698;23.148;2023-02-24T01:24:17;11.50;;;7.80;;
10605;SDS011;5350;42.698;23.148;2023-02-24T01:26:44;10.80;;;7.57;;
10605;SDS011;5350;42.698;23.148;2023-02-24T01:29:10;11.90;;;8.13;;
10605;SDS011;5350;42.698;23.148;2023-02-24T01:31:39;10.73;;;7.33;;
10605;SDS011;5350;42.698;23.148;2023-02-24T01:34:06;10.97;;;6.90;;
10605;SDS011;5350;42.698;23.148;2023-02-24T01:36:35;10.97;;;6.93;;
10605;SDS011;5350;42.698;23.148;2023-02-24T01:39:03;10.17;;;7.10;;
10605;SDS011;5350;42.698;23.148;2023-02-24T01:41:35;10.03;;;7.30;;
10605;SDS011;5350;42.698;23.148;2023-02-24T01:44:03;10.27;;;7.40;;
10605;SDS011;5350;42.698;23.148;2023-02-24T01:46:34;8.87;;;6.87;;
10605;SDS011;5350;42.698;23.148;2023-02-24T01:49:05;12.03;;;7.43;;
10605;SDS011;5350;42.698;23.148;2023-02-24T01:51:36;9.73;;;6.90;;
10605;SDS011;5350;42.698;23.148;2023-02-24T01:54:06;12.30;;;7.10;;
10605;SDS011;5350;42.698;23.148;2023-02-24T01:56:35;10.87;;;7.30;;
10605;SDS011;5350;42.698;23.148;2023-02-24T01:59:03;12.27;;;7.70;;
10605;SDS011;5350;42.698;23.148;2023-02-24T02:01:30;11.23;;;7.60;;
10605;SDS011;5350;42.698;23.148;2023-02-24T02:04:06;11.70;;;7.97;;
10605;SDS011;5350;42.698;23.148;2023-02-24T02:06:41;13.30;;;6.87;;
10605;SDS011;5350;42.698;23.148;2023-02-24T02:09:09;10.87;;;6.60;;
10605;SDS011;5350;42.698;23.148;2023-02-24T02:11:38;9.70;;;7.27;;
10605;SDS011;5350;42.698;23.148;2023-02-24T02:14:06;10.77;;;7.60;;
10605;SDS011;5350;42.698;23.148;2023-02-24T02:22:54;10.23;;;7.30;;
10605;SDS011;5350;42.698;23.148;2023-02-24T02:25:38;11.67;;;6.87;;
10605;SDS011;5350;42.698;23.148;2023-02-24T02:28:24;12.20;;;6.97;;
10605;SDS011;5350;42.698;23.148;2023-02-24T02:34:17;11.70;;;7.40;;
10605;SDS011;5350;42.698;23.148;2023-02-24T02:36:51;10.77;;;7.20;;
10605;SDS011;5350;42.698;23.148;2023-02-24T02:39:26;9.17;;;6.80;;
10605;SDS011;5350;42.698;23.148;2023-02-24T02:42:01;11.10;;;7.10;;
10605;SDS011;5350;42.698;23.148;2023-02-24T02:44:41;12.00;;;7.17;;
10605;SDS011;5350;42.698;23.148;2023-02-24T02:47:21;10.17;;;6.37;;
10605;SDS011;5350;42.698;23.148;2023-02-24T02:49:53;9.87;;;6.97;;
10605;SDS011;5350;42.698;23.148;2023-02-24T02:52:26;8.17;;;6.00;;
10605;SDS011;5350;42.698;23.148;2023-02-24T02:54:58;11.40;;;7.00;;
10605;SDS011;5350;42.698;23.148;2023-02-24T02:57:29;10.70;;;7.63;;
10605;SDS011;5350;42.698;23.148;2023-02-24T02:59:59;11.90;;;7.87;;
10605;SDS011;5350;42.698;23.148;2023-02-24T03:02:35;11.80;;;7.70;;
10605;SDS011;5350;42.698;23.148;2023-02-24T03:05:07;12.90;;;8.53;;
10605;SDS011;5350;42.698;23.148;2023-02-24T03:07:38;11.77;;;8.03;;
10605;SDS011;5350;42.698;23.148;2023-02-24T03:10:10;15.60;;;9.50;;
10605;SDS011;5350;42.698;23.148;2023-02-24T03:12:45;22.43;;;12.97;;
10605;SDS011;5350;42.698;23.148;2023-02-24T03:15:16;14.90;;;9.07;;
10605;SDS011;5350;42.698;23.148;2023-02-24T03:17:46;12.10;;;8.20;;
10605;SDS011;5350;42.698;23.148;2023-02-24T03:20:21;11.97;;;8.10;;
10605;SDS011;5350;42.698;23.148;2023-02-24T03:22:53;13.47;;;8.43;;
10605;SDS011;5350;42.698;23.148;2023-02-24T03:25:28;12.20;;;8.13;;
10605;SDS011;5350;42.698;23.148;2023-02-24T03:28:05;11.07;;;7.90;;
10605;SDS011;5350;42.698;23.148;2023-02-24T03:30:41;12.97;;;7.80;;
10605;SDS011;5350;42.698;23.148;2023-02-24T03:33:13;13.50;;;8.47;;
10605;SDS011;5350;42.698;23.148;2023-02-24T03:35:46;12.43;;;7.93;;
10605;SDS011;5350;42.698;23.148;2023-02-24T03:38:15;11.70;;;7.93;;
10605;SDS011;5350;42.698;23.148;2023-02-24T03:40:44;10.53;;;7.63;;
10605;SDS011;5350;42.698;23.148;2023-02-24T03:43:13;10.73;;;7.03;;
10605;SDS011;5350;42.698;23.148;2023-02-24T03:45:43;11.90;;;7.17;;
10605;SDS011;5350;42.698;23.148;2023-02-24T03:48:11;10.57;;;7.53;;
10605;SDS011;5350;42.698;23.148;2023-02-24T03:50:39;9.70;;;6.83;;
10605;SDS011;5350;42.698;23.148;2023-02-24T03:53:12;11.60;;;7.63;;
10605;SDS011;5350;42.698;23.148;2023-02-24T03:55:55;13.23;;;7.30;;
10605;SDS011;5350;42.698;23.148;2023-02-24T03:58:31;11.07;;;7.50;;
10605;SDS011;5350;42.698;23.148;2023-02-24T04:01:09;10.57;;;7.23;;
10605;SDS011;5350;42.698;23.148;2023-02-24T04:03:42;9.20;;;6.47;;
10605;SDS011;5350;42.698;23.148;2023-02-24T04:06:24;10.83;;;6.77;;
10605;SDS011;5350;42.698;23.148;2023-02-24T04:09:00;10.57;;;7.17;;
10605;SDS011;5350;42.698;23.148;2023-02-24T04:11:34;9.43;;;6.23;;
10605;SDS011;5350;42.698;23.148;2023-02-24T04:14:08;9.07;;;6.50;;
10605;SDS011;5350;42.698;23.148;2023-02-24T04:16:40;10.40;;;7.00;;
10605;SDS011;5350;42.698;23.148;2023-02-24T04:19:14;9.00;;;6.30;;
10605;SDS011;5350;42.698;23.148;2023-02-24T04:21:44;9.27;;;6.57;;
10605;SDS011;5350;42.698;23.148;2023-02-24T04:24:14;10.43;;;7.17;;
10605;SDS011;5350;42.698;23.148;2023-02-24T04:26:44;10.10;;;6.60;;
10605;SDS011;5350;42.698;23.148;2023-02-24T04:29:14;9.17;;;6.47;;
10605;SDS011;5350;42.698;23.148;2023-02-24T04:31:47;9.80;;;6.57;;
10605;SDS011;5350;42.698;23.148;2023-02-24T04:34:18;9.37;;;6.43;;
10605;SDS011;5350;42.698;23.148;2023-02-24T04:36:45;12.10;;;6.80;;
10605;SDS011;5350;42.698;23.148;2023-02-24T04:39:16;9.20;;;6.87;;
10605;SDS011;5350;42.698;23.148;2023-02-24T04:41:44;10.00;;;6.20;;
10605;SDS011;5350;42.698;23.148;2023-02-24T04:44:13;10.83;;;6.77;;
10605;SDS011;5350;42.698;23.148;2023-02-24T04:46:42;10.33;;;6.53;;
10605;SDS011;5350;42.698;23.148;2023-02-24T04:49:09;8.23;;;6.60;;
10605;SDS011;5350;42.698;23.148;2023-02-24T04:51:36;9.43;;;6.97;;
10605;SDS011;5350;42.698;23.148;2023-02-24T04:54:06;9.70;;;7.10;;
10605;SDS011;5350;42.698;23.148;2023-02-24T04:56:35;10.97;;;6.83;;
10605;SDS011;5350;42.698;23.148;2023-02-24T04:59:04;9.70;;;6.83;;
10605;SDS011;5350;42.698;23.148;2023-02-24T05:01:31;8.30;;;6.70;;
10605;SDS011;5350;42.698;23.148;2023-02-24T05:03:58;8.20;;;6.20;;
10605;SDS011;5350;42.698;23.148;2023-02-24T05:06:25;10.57;;;7.27;;
10605;SDS011;5350;42.698;23.148;2023-02-24T05:08:51;9.17;;;7.20;;
10605;SDS011;5350;42.698;23.148;2023-02-24T05:11:18;10.20;;;7.60;;
10605;SDS011;5350;42.698;23.148;2023-02-24T05:13:46;9.90;;;6.83;;
10605;SDS011;5350;42.698;23.148;2023-02-24T05:16:13;10.20;;;7.30;;
10605;SDS011;5350;42.698;23.148;2023-02-24T05:18:42;11.00;;;7.47;;
10605;SDS011;5350;42.698;23.148;2023-02-24T05:21:10;11.03;;;6.83;;
10605;SDS011;5350;42.698;23.148;2023-02-24T05:23:55;10.27;;;7.60;;
10605;SDS011;5350;42.698;23.148;2023-02-24T05:26:23;12.57;;;7.93;;
10605;SDS011;5350;42.698;23.148;2023-02-24T05:28:52;10.27;;;6.77;;
10605;SDS011;5350;42.698;23.148;2023-02-24T05:31:21;8.40;;;6.57;;
10605;SDS011;5350;42.698;23.148;2023-02-24T05:33:50;9.10;;;6.47;;
10605;SDS011;5350;42.698;23.148;2023-02-24T05:36:20;9.20;;;6.67;;
10605;SDS011;5350;42.698;23.148;2023-02-24T05:38:48;8.97;;;7.07;;
10605;SDS011;5350;42.698;23.148;2023-02-24T05:41:19;9.33;;;6.90;;
10605;SDS011;5350;42.698;23.148;2023-02-24T05:43:47;11.43;;;6.80;;
10605;SDS011;5350;42.698;23.148;2023-02-24T05:46:20;11.30;;;7.87;;
10605;SDS011;5350;42.698;23.148;2023-02-24T05:48:52;11.27;;;7.10;;
10605;SDS011;5350;42.698;23.148;2023-02-24T05:51:21;14.00;;;12.50;;
10605;SDS011;5350;42.698;23.148;2023-02-24T05:53:49;8.20;;;6.43;;
10605;SDS011;5350;42.698;23.148;2023-02-24T05:56:19;19.33;;;17.43;;
10605;SDS011;5350;42.698;23.148;2023-02-24T05:58:47;11.50;;;8.03;;
10605;SDS011;5350;42.698;23.148;2023-02-24T06:01:14;10.70;;;7.87;;
10605;SDS011;5350;42.698;23.148;2023-02-24T06:03:44;12.20;;;7.40;;
10605;SDS011;5350;42.698;23.148;2023-02-24T06:06:12;11.63;;;7.57;;
10605;SDS011;5350;42.698;23.148;2023-02-24T06:08:40;11.80;;;7.60;;
10605;SDS011;5350;42.698;23.148;2023-02-24T06:11:14;9.10;;;7.23;;
10605;SDS011;5350;42.698;23.148;2023-02-24T06:13:43;9.17;;;6.90;;
10605;SDS011;5350;42.698;23.148;2023-02-24T06:16:12;10.60;;;7.23;;
10605;SDS011;5350;42.698;23.148;2023-02-24T06:18:39;15.90;;;9.80;;
10605;SDS011;5350;42.698;23.148;2023-02-24T06:21:08;11.20;;;9.07;;
10605;SDS011;5350;42.698;23.148;2023-02-24T06:23:36;9.53;;;6.47;;
10605;SDS011;5350;42.698;23.148;2023-02-24T06:26:03;10.13;;;6.43;;
10605;SDS011;5350;42.698;23.148;2023-02-24T06:28:37;14.73;;;7.97;;
10605;SDS011;5350;42.698;23.148;2023-02-24T06:31:04;9.07;;;7.27;;
10605;SDS011;5350;42.698;23.148;2023-02-24T06:33:31;9.47;;;6.73;;
10605;SDS011;5350;42.698;23.148;2023-02-24T06:36:00;10.87;;;7.67;;
10605;SDS011;5350;42.698;23.148;2023-02-24T06:38:30;15.00;;;9.23;;
10605;SDS011;5350;42.698;23.148;2023-02-24T06:40:57;10.93;;;7.97;;
10605;SDS011;5350;42.698;23.148;2023-02-24T06:43:24;10.67;;;7.20;;
10605;SDS011;5350;42.698;23.148;2023-02-24T06:45:51;10.43;;;7.80;;
10605;SDS011;5350;42.698;23.148;2023-02-24T06:48:19;8.83;;;7.07;;
10605;SDS011;5350;42.698;23.148;2023-02-24T06:50:47;13.33;;;8.33;;
10605;SDS011;5350;42.698;23.148;2023-02-24T06:53:15;13.77;;;7.97;;
10605;SDS011;5350;42.698;23.148;2023-02-24T06:55:44;12.63;;;7.90;;
10605;SDS011;5350;42.698;23.148;2023-02-24T06:58:14;12.27;;;7.93;;
10605;SDS011;5350;42.698;23.148;2023-02-24T07:00:42;10.17;;;7.47;;
10605;SDS011;5350;42.698;23.148;2023-02-24T07:03:21;9.67;;;7.23;;
10605;SDS011;5350;42.698;23.148;2023-02-24T07:05:49;10.67;;;7.23;;
10605;SDS011;5350;42.698;23.148;2023-02-24T07:08:18;13.40;;;7.13;;
10605;SDS011;5350;42.698;23.148;2023-02-24T07:10:53;10.33;;;7.43;;
10605;SDS011;5350;42.698;23.148;2023-02-24T07:13:20;9.00;;;6.80;;
10605;SDS011;5350;42.698;23.148;2023-02-24T07:15:48;8.73;;;7.03;;
10605;SDS011;5350;42.698;23.148;2023-02-24T07:18:16;13.50;;;7.03;;
10605;SDS011;5350;42.698;23.148;2023-02-24T07:20:43;11.43;;;7.57;;
10605;SDS011;5350;42.698;23.148;2023-02-24T07:23:11;12.27;;;7.40;;
10605;SDS011;5350;42.698;23.148;2023-02-24T07:25:39;10.27;;;7.37;;
10605;SDS011;5350;42.698;23.148;2023-02-24T07:28:08;12.40;;;7.77;;
10605;SDS011;5350;42.698;23.148;2023-02-24T07:30:36;11.47;;;8.27;;
10605;SDS011;5350;42.698;23.148;2023-02-24T07:33:04;12.50;;;7.33;;
10605;SDS011;5350;42.698;23.148;2023-02-24T07:35:31;11.53;;;8.27;;
10605;SDS011;5350;42.698;23.148;2023-02-24T07:37:59;10.97;;;8.00;;
10605;SDS011;5350;42.698;23.148;2023-02-24T07:40:29;12.67;;;8.00;;
10605;SDS011;5350;42.698;23.148;2023-02-24T07:42:57;12.23;;;7.27;;
10605;SDS011;5350;42.698;23.148;2023-02-24T07:45:26;11.67;;;6.93;;
10605;SDS011;5350;42.698;23.148;2023-02-24T07:47:53;12.63;;;7.50;;
10605;SDS011;5350;42.698;23.148;2023-02-24T07:50:20;12.33;;;7.97;;
10605;SDS011;5350;42.698;23.148;2023-02-24T07:52:48;13.40;;;8.33;;
10605;SDS011;5350;42.698;23.148;2023-02-24T07:55:15;10.63;;;7.03;;
10605;SDS011;5350;42.698;23.148;2023-02-24T07:57:42;11.20;;;7.17;;
10605;SDS011;5350;42.698;23.148;2023-02-24T08:00:11;10.30;;;6.50;;
10605;SDS011;5350;42.698;23.148;2023-02-24T08:02:45;9.53;;;7.00;;
10605;SDS011;5350;42.698;23.148;2023-02-24T08:05:13;10.23;;;6.73;;
10605;SDS011;5350;42.698;23.148;2023-02-24T08:07:40;10.80;;;7.20;;
10605;SDS011;5350;42.698;23.148;2023-02-24T08:10:07;11.43;;;6.97;;
10605;SDS011;5350;42.698;23.148;2023-02-24T08:12:38;9.07;;;7.03;;
10605;SDS011;5350;42.698;23.148;2023-02-24T08:15:08;10.93;;;7.47;;
10605;SDS011;5350;42.698;23.148;2023-02-24T08:17:41;11.80;;;7.20;;
10605;SDS011;5350;42.698;23.148;2023-02-24T08:20:13;12.10;;;7.33;;
10605;SDS011;5350;42.698;23.148;2023-02-24T08:22:48;15.70;;;8.60;;
10605;SDS011;5350;42.698;23.148;2023-02-24T08:25:17;15.40;;;8.63;;
10605;SDS011;5350;42.698;23.148;2023-02-24T08:27:48;14.03;;;10.17;;
10605;SDS011;5350;42.698;23.148;2023-02-24T08:30:20;13.07;;;8.33;;
10605;SDS011;5350;42.698;23.148;2023-02-24T08:32:49;10.23;;;8.43;;
10605;SDS011;5350;42.698;23.148;2023-02-24T08:35:23;12.40;;;9.07;;
10605;SDS011;5350;42.698;23.148;2023-02-24T08:37:56;12.07;;;8.03;;
10605;SDS011;5350;42.698;23.148;2023-02-24T08:40:29;11.83;;;8.67;;
10605;SDS011;5350;42.698;23.148;2023-02-24T08:43:15;13.83;;;9.23;;
10605;SDS011;5350;42.698;23.148;2023-02-24T08:45:49;15.83;;;10.17;;
10605;SDS011;5350;42.698;23.148;2023-02-24T08:48:21;14.90;;;10.07;;
10605;SDS011;5350;42.698;23.148;2023-02-24T08:51:00;14.27;;;10.37;;
10605;SDS011;5350;42.698;23.148;2023-02-24T08:53:28;13.60;;;10.20;;
10605;SDS011;5350;42.698;23.148;2023-02-24T08:55:56;14.17;;;10.77;;
10605;SDS011;5350;42.698;23.148;2023-02-24T08:58:25;15.50;;;10.57;;
10605;SDS011;5350;42.698;23.148;2023-02-24T09:00:52;13.47;;;10.43;;
10605;SDS011;5350;42.698;23.148;2023-02-24T09:03:21;15.23;;;10.53;;
10605;SDS011;5350;42.698;23.148;2023-02-24T09:06:00;14.03;;;10.80;;
10605;SDS011;5350;42.698;23.148;2023-02-24T09:08:29;16.03;;;11.37;;
10605;SDS011;5350;42.698;23.148;2023-02-24T09:10:58;15.03;;;10.70;;
10605;SDS011;5350;42.698;23.148;2023-02-24T09:13:25;15.47;;;11.73;;
10605;SDS011;5350;42.698;23.148;2023-02-24T09:15:57;17.70;;;12.03;;
10605;SDS011;5350;42.698;23.148;2023-02-24T09:18:26;20.73;;;11.70;;
10605;SDS011;5350;42.698;23.148;2023-02-24T09:20:55;16.17;;;10.43;;
10605;SDS011;5350;42.698;23.148;2023-02-24T09:23:22;15.73;;;11.43;;
10605;SDS011;5350;42.698;23.148;2023-02-24T09:25:55;15.23;;;9.77;;
10605;SDS011;5350;42.698;23.148;2023-02-24T09:28:22;13.57;;;8.97;;
10605;SDS011;5350;42.698;23.148;2023-02-24T09:30:51;12.17;;;8.93;;
10605;SDS011;5350;42.698;23.148;2023-02-24T09:33:20;13.37;;;9.37;;
10605;SDS011;5350;42.698;23.148;2023-02-24T09:35:56;15.50;;;9.97;;
10605;SDS011;5350;42.698;23.148;2023-02-24T09:38:36;16.30;;;10.50;;
10605;SDS011;5350;42.698;23.148;2023-02-24T09:41:22;14.00;;;10.23;;
10605;SDS011;5350;42.698;23.148;2023-02-24T09:43:57;16.80;;;10.77;;
10605;SDS011;5350;42.698;23.148;2023-02-24T09:46:33;17.03;;;11.00;;
10605;SDS011;5350;42.698;23.148;2023-02-24T09:49:07;16.77;;;11.07;;
10605;SDS011;5350;42.698;23.148;2023-02-24T09:51:41;17.20;;;11.20;;
10605;SDS011;5350;42.698;23.148;2023-02-24T09:54:14;16.20;;;11.17;;
10605;SDS011;5350;42.698;23.148;2023-02-24T09:56:46;19.63;;;10.90;;
10605;SDS011;5350;42.698;23.148;2023-02-24T09:59:33;16.80;;;10.87;;
10605;SDS011;5350;42.698;23.148;2023-02-24T10:02:18;15.33;;;11.23;;
10605;SDS011;5350;42.698;23.148;2023-02-24T10:04:59;15.03;;;11.30;;
10605;SDS011;5350;42.698;23.148;2023-02-24T10:07:33;15.90;;;10.97;;
10605;SDS011;5350;42.698;23.148;2023-02-24T10:10:06;16.63;;;11.40;;
10605;SDS011;5350;42.698;23.148;2023-02-24T10:12:45;16.23;;;11.83;;
10605;SDS011;5350;42.698;23.148;2023-02-24T10:15:17;16.67;;;11.27;;
10605;SDS011;5350;42.698;23.148;2023-02-24T10:18:13;19.73;;;12.00;;
10605;SDS011;5350;42.698;23.148;2023-02-24T10:20:52;15.33;;;10.80;;
10605;SDS011;5350;42.698;23.148;2023-02-24T10:23:26;20.77;;;11.53;;
10605;SDS011;5350;42.698;23.148;2023-02-24T10:26:01;16.67;;;12.10;;
10605;SDS011;5350;42.698;23.148;2023-02-24T10:28:32;19.77;;;11.47;;
10605;SDS011;5350;42.698;23.148;2023-02-24T10:31:10;17.97;;;11.83;;
10605;SDS011;5350;42.698;23.148;2023-02-24T10:33:49;18.67;;;11.90;;
10605;SDS011;5350;42.698;23.148;2023-02-24T10:36:44;16.63;;;12.07;;
10605;SDS011;5350;42.698;23.148;2023-02-24T10:39:14;18.83;;;12.17;;
10605;SDS011;5350;42.698;23.148;2023-02-24T10:41:46;16.57;;;11.63;;
10605;SDS011;5350;42.698;23.148;2023-02-24T10:44:21;16.77;;;11.13;;
10605;SDS011;5350;42.698;23.148;2023-02-24T10:46:58;15.23;;;10.87;;
10605;SDS011;5350;42.698;23.148;2023-02-24T10:49:45;16.43;;;12.10;;
10605;SDS011;5350;42.698;23.148;2023-02-24T10:52:25;17.73;;;11.63;;
10605;SDS011;5350;42.698;23.148;2023-02-24T10:55:03;18.97;;;12.90;;
10605;SDS011;5350;42.698;23.148;2023-02-24T10:57:53;17.70;;;12.20;;
10605;SDS011;5350;42.698;23.148;2023-02-24T11:00:36;22.73;;;12.57;;
10605;SDS011;5350;42.698;23.148;2023-02-24T11:03:21;17.67;;;11.80;;
10605;SDS011;5350;42.698;23.148;2023-02-24T11:06:00;18.57;;;12.77;;
10605;SDS011;5350;42.698;23.148;2023-02-24T11:08:44;15.57;;;11.57;;
10605;SDS011;5350;42.698;23.148;2023-02-24T11:11:33;18.23;;;12.33;;
10605;SDS011;5350;42.698;23.148;2023-02-24T11:14:22;15.70;;;12.17;;
10605;SDS011;5350;42.698;23.148;2023-02-24T11:17:11;16.27;;;11.57;;
10605;SDS011;5350;42.698;23.148;2023-02-24T11:19:54;18.53;;;12.17;;
10605;SDS011;5350;42.698;23.148;2023-02-24T11:22:24;16.53;;;11.87;;
10605;SDS011;5350;42.698;23.148;2023-02-24T11:24:56;17.80;;;11.50;;
10605;SDS011;5350;42.698;23.148;2023-02-24T11:27:30;19.50;;;12.00;;
10605;SDS011;5350;42.698;23.148;2023-02-24T11:30:08;14.77;;;11.23;;
10605;SDS011;5350;42.698;23.148;2023-02-24T11:32:49;20.40;;;12.30;;
10605;SDS011;5350;42.698;23.148;2023-02-24T11:35:30;19.83;;;12.17;;
10605;SDS011;5350;42.698;23.148;2023-02-24T11:38:06;17.90;;;13.27;;
10605;SDS011;5350;42.698;23.148;2023-02-24T11:40:42;18.87;;;10.43;;
10605;SDS011;5350;42.698;23.148;2023-02-24T11:43:14;15.60;;;10.83;;
10605;SDS011;5350;42.698;23.148;2023-02-24T11:45:46;13.73;;;10.60;;
10605;SDS011;5350;42.698;23.148;2023-02-24T11:48:16;15.53;;;9.93;;
10605;SDS011;5350;42.698;23.148;2023-02-24T11:50:46;13.07;;;9.87;;
10605;SDS011;5350;42.698;23.148;2023-02-24T11:53:20;15.67;;;10.03;;
10605;SDS011;5350;42.698;23.148;2023-02-24T11:55:53;15.00;;;10.43;;
10605;SDS011;5350;42.698;23.148;2023-02-24T11:58:27;14.87;;;10.33;;
10605;SDS011;5350;42.698;23.148;2023-02-24T12:01:02;15.97;;;10.47;;
10605;SDS011;5350;42.698;23.148;2023-02-24T12:03:38;17.37;;;10.63;;
10605;SDS011;5350;42.698;23.148;2023-02-24T12:06:15;15.70;;;10.40;;
10605;SDS011;5350;42.698;23.148;2023-02-24T12:08:47;15.67;;;10.70;;
10605;SDS011;5350;42.698;23.148;2023-02-24T12:11:20;16.53;;;10.83;;
10605;SDS011;5350;42.698;23.148;2023-02-24T12:14:01;16.30;;;11.33;;
10605;SDS011;5350;42.698;23.148;2023-02-24T12:16:40;16.10;;;11.30;;
10605;SDS011;5350;42.698;23.148;2023-02-24T12:19:14;18.90;;;11.50;;
10605;SDS011;5350;42.698;23.148;2023-02-24T12:21:45;14.87;;;10.27;;
10605;SDS011;5350;42.698;23.148;2023-02-24T12:24:17;19.87;;;10.87;;
10605;SDS011;5350;42.698;23.148;2023-02-24T12:26:47;17.57;;;11.27;;
10605;SDS011;5350;42.698;23.148;2023-02-24T12:29:34;16.30;;;11.63;;
10605;SDS011;5350;42.698;23.148;2023-02-24T12:32:16;16.30;;;11.40;;
10605;SDS011;5350;42.698;23.148;2023-02-24T12:34:51;16.43;;;11.67;;
10605;SDS011;5350;42.698;23.148;2023-02-24T12:40:26;17.27;;;11.70;;
10605;SDS011;5350;42.698;23.148;2023-02-24T12:43:03;22.07;;;15.47;;
10605;SDS011;5350;42.698;23.148;2023-02-24T12:45:43;16.20;;;13.07;;
10605;SDS011;5350;42.698;23.148;2023-02-24T12:48:23;20.30;;;13.20;;
10605;SDS011;5350;42.698;23.148;2023-02-24T12:51:02;16.87;;;13.40;;
10605;SDS011;5350;42.698;23.148;2023-02-24T12:53:34;16.47;;;12.83;;
10605;SDS011;5350;42.698;23.148;2023-02-24T12:56:10;25.03;;;17.13;;
10605;SDS011;5350;42.698;23.148;2023-02-24T12:58:43;16.40;;;12.60;;
10605;SDS011;5350;42.698;23.148;2023-02-24T13:01:15;21.63;;;12.97;;
10605;SDS011;5350;42.698;23.148;2023-02-24T13:03:54;17.67;;;13.07;;
10605;SDS011;5350;42.698;23.148;2023-02-24T13:06:32;18.20;;;12.13;;
10605;SDS011;5350;42.698;23.148;2023-02-24T13:09:08;22.47;;;13.40;;
10605;SDS011;5350;42.698;23.148;2023-02-24T13:11:43;17.90;;;12.70;;
10605;SDS011;5350;42.698;23.148;2023-02-24T13:14:16;20.30;;;12.70;;
10605;SDS011;5350;42.698;23.148;2023-02-24T13:17:01;21.50;;;13.13;;
10605;SDS011;5350;42.698;23.148;2023-02-24T13:19:30;21.73;;;14.23;;
10605;SDS011;5350;42.698;23.148;2023-02-24T13:22:00;21.53;;;14.60;;
10605;SDS011;5350;42.698;23.148;2023-02-24T13:24:31;19.37;;;14.50;;
10605;SDS011;5350;42.698;23.148;2023-02-24T13:27:18;17.73;;;13.07;;
10605;SDS011;5350;42.698;23.148;2023-02-24T13:29:49;17.10;;;12.53;;
10605;SDS011;5350;42.698;23.148;2023-02-24T13:32:24;18.10;;;12.53;;
10605;SDS011;5350;42.698;23.148;2023-02-24T13:34:55;27.13;;;14.10;;
10605;SDS011;5350;42.698;23.148;2023-02-24T13:37:27;19.50;;;12.70;;
10605;SDS011;5350;42.698;23.148;2023-02-24T13:39:56;19.77;;;13.50;;
10605;SDS011;5350;42.698;23.148;2023-02-24T13:42:24;22.70;;;13.17;;
10605;SDS011;5350;42.698;23.148;2023-02-24T13:44:53;19.57;;;13.13;;
10605;SDS011;5350;42.698;23.148;2023-02-24T13:47:37;18.33;;;13.03;;
10605;SDS011;5350;42.698;23.148;2023-02-24T13:50:18;21.10;;;13.77;;
10605;SDS011;5350;42.698;23.148;2023-02-24T13:52:57;20.10;;;14.20;;
10605;SDS011;5350;42.698;23.148;2023-02-24T13:55:46;22.80;;;14.90;;
10605;SDS011;5350;42.698;23.148;2023-02-24T13:58:38;19.80;;;14.17;;
10605;SDS011;5350;42.698;23.148;2023-02-24T14:01:29;19.13;;;12.87;;
10605;SDS011;5350;42.698;23.148;2023-02-24T14:04:12;18.63;;;12.77;;
10605;SDS011;5350;42.698;23.148;2023-02-24T14:06:46;17.23;;;12.80;;
10605;SDS011;5350;42.698;23.148;2023-02-24T14:09:16;18.08;;;12.77;;
10605;SDS011;5350;42.698;23.148;2023-02-24T14:11:49;16.33;;;13.38;;
10605;SDS011;5350;42.698;23.148;2023-02-24T14:14:19;20.40;;;13.73;;
10605;SDS011;5350;42.698;23.148;2023-02-24T14:16:47;17.35;;;13.15;;
10605;SDS011;5350;42.698;23.148;2023-02-24T14:19:16;17.83;;;13.23;;
10605;SDS011;5350;42.698;23.148;2023-02-24T14:21:49;20.10;;;13.13;;
10605;SDS011;5350;42.698;23.148;2023-02-24T14:24:17;17.38;;;13.90;;
10605;SDS011;5350;42.698;23.148;2023-02-24T14:26:46;19.17;;;14.20;;
10605;SDS011;5350;42.698;23.148;2023-02-24T14:29:15;19.05;;;14.27;;
10605;SDS011;5350;42.698;23.148;2023-02-24T14:31:47;20.10;;;13.60;;
10605;SDS011;5350;42.698;23.148;2023-02-24T14:34:17;20.58;;;13.82;;
10605;SDS011;5350;42.698;23.148;2023-02-24T14:36:45;19.55;;;14.38;;
10605;SDS011;5350;42.698;23.148;2023-02-24T14:39:16;17.50;;;13.55;;
10605;SDS011;5350;42.698;23.148;2023-02-24T14:41:45;23.13;;;14.55;;
10605;SDS011;5350;42.698;23.148;2023-02-24T14:44:20;20.00;;;14.70;;
10605;SDS011;5350;42.698;23.148;2023-02-24T14:46:49;23.93;;;16.43;;
10605;SDS011;5350;42.698;23.148;2023-02-24T14:49:19;18.13;;;14.73;;
10605;SDS011;5350;42.698;23.148;2023-02-24T14:51:50;23.60;;;14.25;;
10605;SDS011;5350;42.698;23.148;2023-02-24T14:54:25;25.48;;;19.17;;
10605;SDS011;5350;42.698;23.148;2023-02-24T14:57:02;19.10;;;14.30;;
10605;SDS011;5350;42.698;23.148;2023-02-24T14:59:30;22.40;;;14.37;;
10605;SDS011;5350;42.698;23.148;2023-02-24T15:02:00;20.80;;;15.17;;
10605;SDS011;5350;42.698;23.148;2023-02-24T15:04:31;23.97;;;14.93;;
10605;SDS011;5350;42.698;23.148;2023-02-24T15:07:00;21.70;;;15.38;;
10605;SDS011;5350;42.698;23.148;2023-02-24T15:09:33;28.30;;;18.33;;
10605;SDS011;5350;42.698;23.148;2023-02-24T15:12:09;24.80;;;18.27;;
10605;SDS011;5350;42.698;23.148;2023-02-24T15:14:42;25.57;;;17.70;;